Time;durP1;ratioP1;P1;durP2;ratioP2;P2;SDS_P1;SDS_P2;PMS_P1;PMS_P2;Temp;Humidity;BMP_temperature;BMP_pressure;BME280_temperature;BME280_humidity;BME280_pressure;Samples;Min_cycle;Max_cycle;Signal;HPM_P1;HPM_P2
2023/09/09 00:00:54;;;;;;;14.48;10.95;;;17.00;99.90;;;;;;5042443;28;20111;-67
2023/09/09 00:03:20;;;;;;;13.35;10.23;;;17.00;99.90;;;;;;5042131;28;20780;-67
2023/09/09 00:05:46;;;;;;;14.50;9.60;;;17.00;99.90;;;;;;5043590;28;20041;-66
2023/09/09 00:08:11;;;;;;;12.68;10.25;;;17.00;99.90;;;;;;5040369;28;20037;-67
2023/09/09 00:10:38;;;;;;;14.38;10.35;;;17.00;99.90;;;;;;5046211;28;20423;-66
2023/09/09 00:13:05;;;;;;;12.95;9.95;;;16.90;99.90;;;;;;5045610;28;20052;-66
2023/09/09 00:15:31;;;;;;;14.57;9.77;;;16.90;99.90;;;;;;5041365;28;20049;-67
2023/09/09 00:17:57;;;;;;;12.85;10.35;;;16.80;99.90;;;;;;5040256;28;20524;-67
2023/09/09 00:20:36;;;;;;;16.45;10.88;;;16.80;99.90;;;;;;5049546;28;20045;-67
2023/09/09 00:23:07;;;;;;;14.40;10.60;;;16.80;99.90;;;;;;5046898;28;20395;-66
2023/09/09 00:25:34;;;;;;;16.38;10.63;;;16.80;99.90;;;;;;5031716;28;20916;-66
2023/09/09 00:27:59;;;;;;;14.93;11.35;;;16.70;99.90;;;;;;5038999;28;20045;-67
2023/09/09 00:30:25;;;;;;;14.40;11.10;;;16.70;99.90;;;;;;5030423;28;20299;-67
2023/09/09 00:32:50;;;;;;;14.23;10.82;;;16.70;99.90;;;;;;5034820;28;20033;-67
2023/09/09 00:35:16;;;;;;;14.52;10.80;;;16.60;99.90;;;;;;5035843;28;20041;-67
2023/09/09 00:37:41;;;;;;;13.68;11.40;;;16.60;99.90;;;;;;5033603;28;20037;-67
2023/09/09 00:40:07;;;;;;;13.95;11.05;;;16.60;99.90;;;;;;5034635;28;20064;-67
2023/09/09 00:42:33;;;;;;;12.95;10.60;;;16.50;99.90;;;;;;5044882;28;20334;-66
2023/09/09 00:44:58;;;;;;;15.85;12.00;;;16.50;99.90;;;;;;5041524;28;20111;-67
2023/09/09 00:47:25;;;;;;;14.93;11.00;;;16.50;99.90;;;;;;5045761;28;20487;-67
2023/09/09 00:49:51;;;;;;;17.00;12.05;;;16.50;99.90;;;;;;5043486;28;20116;-67
2023/09/09 00:52:16;;;;;;;15.00;11.15;;;16.50;99.90;;;;;;5018119;28;20124;-66
2023/09/09 00:54:42;;;;;;;17.58;12.75;;;16.50;99.90;;;;;;5040788;28;20037;-67
2023/09/09 00:57:08;;;;;;;12.60;10.85;;;16.40;99.90;;;;;;5038871;28;20069;-66
2023/09/09 00:59:33;;;;;;;16.02;12.50;;;16.40;99.90;;;;;;5045724;28;20052;-67
2023/09/09 01:01:59;;;;;;;14.48;11.30;;;16.40;99.90;;;;;;5044352;28;20341;-67
2023/09/09 01:04:25;;;;;;;14.10;11.13;;;16.40;99.90;;;;;;5041782;28;20536;-67
2023/09/09 01:06:52;;;;;;;14.18;11.48;;;16.40;99.90;;;;;;5031714;28;20075;-66
2023/09/09 01:09:18;;;;;;;15.85;11.30;;;16.30;99.90;;;;;;5024037;28;20029;-67
2023/09/09 01:11:43;;;;;;;15.02;11.65;;;16.30;99.90;;;;;;5039707;28;20037;-66
2023/09/09 01:14:09;;;;;;;17.70;11.27;;;16.30;99.90;;;;;;5040401;28;20029;-66
2023/09/09 01:16:35;;;;;;;13.88;11.55;;;16.40;99.90;;;;;;5048098;28;20160;-66
2023/09/09 01:19:01;;;;;;;15.80;11.63;;;16.30;99.90;;;;;;5039907;28;20076;-67
2023/09/09 01:21:30;;;;;;;16.48;11.35;;;16.40;99.90;;;;;;5031705;28;20049;-66
2023/09/09 01:23:56;;;;;;;16.25;12.57;;;16.40;99.90;;;;;;5033007;28;20412;-67
2023/09/09 01:26:21;;;;;;;17.23;12.15;;;16.30;99.90;;;;;;5031797;28;20079;-66
2023/09/09 01:28:47;;;;;;;16.45;12.45;;;16.30;99.90;;;;;;5038336;28;20042;-66
2023/09/09 01:31:12;;;;;;;15.43;12.32;;;16.30;99.90;;;;;;5039020;28;20129;-67
2023/09/09 01:33:38;;;;;;;16.50;12.05;;;16.30;99.90;;;;;;5040333;28;20373;-66
2023/09/09 01:36:04;;;;;;;14.90;11.65;;;16.30;99.90;;;;;;5042117;28;20048;-66
2023/09/09 01:38:34;;;;;;;16.13;12.07;;;16.30;99.90;;;;;;5052737;28;20037;-67
2023/09/09 01:41:00;;;;;;;15.75;11.25;;;16.30;99.90;;;;;;5043534;28;20064;-67
2023/09/09 01:43:26;;;;;;;16.10;11.60;;;16.20;99.90;;;;;;5044853;28;20128;-66
2023/09/09 01:45:52;;;;;;;16.00;12.07;;;16.20;99.90;;;;;;5035729;28;20195;-67
2023/09/09 01:48:17;;;;;;;15.55;12.00;;;16.20;99.90;;;;;;5038019;28;20100;-66
2023/09/09 01:50:46;;;;;;;19.20;12.25;;;16.20;99.90;;;;;;5042148;28;20041;-67
2023/09/09 01:53:12;;;;;;;15.20;12.27;;;16.30;99.90;;;;;;5054150;28;20044;-67
2023/09/09 01:55:37;;;;;;;17.00;13.00;;;16.20;99.90;;;;;;5037951;28;20045;-66
2023/09/09 01:58:03;;;;;;;16.05;12.15;;;16.20;99.90;;;;;;5050679;28;20051;-66
2023/09/09 02:00:29;;;;;;;19.70;13.23;;;16.20;99.90;;;;;;5040928;28;20041;-67
2023/09/09 02:02:55;;;;;;;19.27;13.35;;;16.10;99.90;;;;;;5039610;28;20155;-67
2023/09/09 02:05:21;;;;;;;18.75;12.82;;;16.10;99.90;;;;;;5036776;28;20128;-67
2023/09/09 02:07:46;;;;;;;17.40;13.27;;;16.10;99.90;;;;;;5030031;28;20124;-67
2023/09/09 02:10:12;;;;;;;18.90;13.73;;;16.10;99.90;;;;;;5042303;28;20077;-67
2023/09/09 02:12:37;;;;;;;19.25;14.45;;;16.10;99.90;;;;;;5044447;28;20051;-67
2023/09/09 02:15:04;;;;;;;18.33;14.05;;;16.20;99.90;;;;;;5041590;28;20425;-67
2023/09/09 02:17:30;;;;;;;19.60;13.80;;;16.10;99.90;;;;;;5038234;28;20041;-67
2023/09/09 02:19:56;;;;;;;18.63;13.65;;;16.10;99.90;;;;;;5036345;28;20343;-67
2023/09/09 02:22:22;;;;;;;18.30;14.00;;;16.10;99.90;;;;;;5038964;28;20036;-67
2023/09/09 02:24:54;;;;;;;18.80;13.38;;;16.10;99.90;;;;;;5036160;28;20040;-67
2023/09/09 02:27:20;;;;;;;20.17;13.70;;;16.10;99.90;;;;;;5036984;28;20044;-67
2023/09/09 02:29:45;;;;;;;19.90;14.48;;;16.00;99.90;;;;;;5049111;28;20501;-67
2023/09/09 02:32:11;;;;;;;22.80;14.98;;;16.00;99.90;;;;;;5041723;28;20131;-67
2023/09/09 02:34:36;;;;;;;21.10;15.23;;;16.00;99.90;;;;;;5044136;28;20141;-66
2023/09/09 02:37:14;;;;;;;22.55;14.90;;;16.00;99.90;;;;;;5047684;28;20029;-67
2023/09/09 02:39:41;;;;;;;19.95;15.50;;;16.00;99.90;;;;;;5039975;28;20447;-67
2023/09/09 02:42:07;;;;;;;20.02;14.75;;;16.00;99.90;;;;;;5036098;28;20037;-67
2023/09/09 02:44:32;;;;;;;20.95;14.30;;;16.00;99.90;;;;;;5030795;28;20037;-67
2023/09/09 02:46:58;;;;;;;23.65;15.63;;;16.00;99.90;;;;;;5038751;28;20044;-67
2023/09/09 02:49:23;;;;;;;19.85;15.15;;;16.00;99.90;;;;;;5040355;28;20106;-67
2023/09/09 02:51:49;;;;;;;20.33;15.75;;;16.00;99.90;;;;;;5043356;28;20037;-67
2023/09/09 02:54:15;;;;;;;22.88;16.13;;;15.90;99.90;;;;;;5045477;28;20234;-67
2023/09/09 02:56:40;;;;;;;22.33;15.27;;;15.90;99.90;;;;;;5040244;28;20151;-67
2023/09/09 02:59:06;;;;;;;24.15;15.80;;;15.90;99.90;;;;;;5039193;28;20045;-66
2023/09/09 03:01:31;;;;;;;21.17;15.48;;;16.00;99.90;;;;;;5040114;28;20048;-68
2023/09/09 03:03:57;;;;;;;21.35;16.02;;;16.00;99.90;;;;;;5026908;28;20067;-67
2023/09/09 03:06:22;;;;;;;19.55;15.25;;;16.00;99.90;;;;;;5040148;28;20489;-67
2023/09/09 03:08:48;;;;;;;21.90;15.70;;;16.10;99.90;;;;;;5029671;28;20376;-67
2023/09/09 03:11:13;;;;;;;22.27;13.80;;;16.10;99.90;;;;;;5046152;28;20123;-67
2023/09/09 03:13:39;;;;;;;23.98;16.27;;;16.10;99.90;;;;;;5041521;28;20617;-67
2023/09/09 03:16:04;;;;;;;22.05;15.85;;;16.00;99.90;;;;;;5041640;28;20072;-67
2023/09/09 03:18:30;;;;;;;24.45;16.95;;;16.00;99.90;;;;;;5049163;28;20086;-67
2023/09/09 03:20:55;;;;;;;21.25;15.25;;;16.00;99.90;;;;;;5042536;28;20029;-67
2023/09/09 03:23:21;;;;;;;24.27;16.77;;;16.00;99.90;;;;;;5051376;28;20128;-67
2023/09/09 03:25:46;;;;;;;24.65;17.10;;;16.00;99.90;;;;;;5043503;28;20307;-67
2023/09/09 03:28:12;;;;;;;22.70;15.85;;;16.00;99.90;;;;;;5041919;28;22407;-67
2023/09/09 03:30:56;;;;;;;23.17;16.15;;;16.00;99.90;;;;;;5049524;28;20041;-67
2023/09/09 03:33:22;;;;;;;22.23;16.52;;;15.90;99.90;;;;;;5039314;28;20079;-67
2023/09/09 03:35:49;;;;;;;25.75;17.58;;;15.90;99.90;;;;;;5049186;28;20507;-67
2023/09/09 03:38:15;;;;;;;25.35;16.75;;;15.80;99.90;;;;;;5040488;28;20090;-67
2023/09/09 03:40:42;;;;;;;23.48;16.75;;;15.80;99.90;;;;;;5042407;28;20123;-67
2023/09/09 03:43:08;;;;;;;22.42;16.42;;;15.80;99.90;;;;;;5033036;28;20041;-67
2023/09/09 03:45:33;;;;;;;21.48;16.20;;;15.80;99.90;;;;;;5021901;28;20111;-67
2023/09/09 03:47:59;;;;;;;24.05;16.73;;;15.80;99.90;;;;;;5047886;28;20037;-67
2023/09/09 03:50:25;;;;;;;27.25;18.35;;;15.80;99.90;;;;;;5045129;28;20059;-67
2023/09/09 03:52:50;;;;;;;23.85;17.33;;;15.70;99.90;;;;;;5039662;28;20451;-67
2023/09/09 03:55:17;;;;;;;24.98;17.52;;;15.70;99.90;;;;;;5031972;28;20041;-67
2023/09/09 03:57:43;;;;;;;23.08;16.75;;;15.70;99.90;;;;;;5033281;28;20536;-67
2023/09/09 04:00:09;;;;;;;22.80;15.95;;;15.60;99.90;;;;;;5032452;28;20041;-67
2023/09/09 04:02:35;;;;;;;21.02;15.73;;;15.60;99.90;;;;;;5044683;28;20129;-67
2023/09/09 04:05:01;;;;;;;20.85;15.25;;;15.60;99.90;;;;;;5036013;28;20112;-67
2023/09/09 04:07:26;;;;;;;23.45;16.50;;;15.60;99.90;;;;;;5041428;28;20036;-67
2023/09/09 04:09:55;;;;;;;22.38;15.68;;;15.70;99.90;;;;;;5041981;28;20545;-67
2023/09/09 04:12:20;;;;;;;22.40;16.02;;;15.60;99.90;;;;;;5048965;28;20037;-67
2023/09/09 04:14:46;;;;;;;23.55;16.40;;;15.60;99.90;;;;;;5043949;28;20043;-67
2023/09/09 04:17:11;;;;;;;23.92;17.05;;;15.60;99.90;;;;;;5043536;28;20044;-67
2023/09/09 04:19:37;;;;;;;25.25;16.63;;;15.60;99.90;;;;;;5049077;28;20041;-67
2023/09/09 04:22:03;;;;;;;25.83;18.42;;;15.60;99.90;;;;;;5032600;28;20052;-67
2023/09/09 04:24:28;;;;;;;30.60;20.33;;;15.60;99.90;;;;;;5041041;28;20056;-67
2023/09/09 04:26:54;;;;;;;28.42;20.25;;;15.60;99.90;;;;;;5043140;28;20553;-67
2023/09/09 04:29:20;;;;;;;27.63;19.70;;;15.50;99.90;;;;;;5047246;28;20804;-67
2023/09/09 04:31:46;;;;;;;32.05;21.30;;;15.50;99.90;;;;;;5041479;28;20120;-67
2023/09/09 04:34:13;;;;;;;28.58;20.58;;;15.50;99.90;;;;;;5037472;28;20100;-67
2023/09/09 04:36:39;;;;;;;32.10;20.95;;;15.50;99.90;;;;;;5040281;28;20358;-67
2023/09/09 04:39:05;;;;;;;29.73;20.92;;;15.50;99.90;;;;;;5036806;28;20486;-67
2023/09/09 04:41:30;;;;;;;28.33;18.73;;;15.50;99.90;;;;;;5044726;28;20041;-67
2023/09/09 04:43:56;;;;;;;27.08;17.52;;;15.50;99.90;;;;;;5040010;28;20132;-67
2023/09/09 04:46:22;;;;;;;24.30;17.23;;;15.50;99.90;;;;;;5032123;28;20083;-67
2023/09/09 04:48:52;;;;;;;25.40;16.60;;;15.40;99.90;;;;;;5025736;28;20056;-67
2023/09/09 04:51:17;;;;;;;22.98;17.00;;;15.40;99.90;;;;;;5047397;28;20205;-68
2023/09/09 04:53:43;;;;;;;22.40;16.30;;;15.40;99.90;;;;;;5035443;28;20524;-67
2023/09/09 04:56:08;;;;;;;24.25;16.52;;;15.30;99.90;;;;;;5029774;28;20465;-67
2023/09/09 04:58:34;;;;;;;23.65;17.55;;;15.30;99.90;;;;;;5046241;28;20079;-67
2023/09/09 05:01:00;;;;;;;20.90;15.55;;;15.30;99.90;;;;;;5044056;28;20037;-68
2023/09/09 05:03:26;;;;;;;21.55;16.48;;;15.30;99.90;;;;;;5027606;28;20075;-67
2023/09/09 05:05:51;;;;;;;22.40;15.15;;;15.30;99.90;;;;;;5047165;28;20048;-67
2023/09/09 05:08:17;;;;;;;25.75;17.98;;;15.30;99.90;;;;;;5045071;28;20137;-67
2023/09/09 05:10:42;;;;;;;25.45;18.10;;;15.30;99.90;;;;;;5049734;28;20374;-67
2023/09/09 05:13:08;;;;;;;26.02;18.35;;;15.20;99.90;;;;;;5035204;28;20370;-67
2023/09/09 05:15:33;;;;;;;27.17;18.23;;;15.30;99.90;;;;;;5030251;28;20041;-68
2023/09/09 05:17:59;;;;;;;26.65;18.17;;;15.30;99.90;;;;;;5040784;28;20033;-67
2023/09/09 05:20:24;;;;;;;25.65;18.90;;;15.30;99.90;;;;;;5032208;28;20128;-67
2023/09/09 05:22:50;;;;;;;24.05;16.42;;;15.30;99.90;;;;;;5042195;28;20354;-67
2023/09/09 05:25:16;;;;;;;26.58;18.73;;;15.30;99.90;;;;;;5043387;28;20359;-67
2023/09/09 05:27:41;;;;;;;26.65;18.73;;;15.20;99.90;;;;;;5041658;28;20166;-67
2023/09/09 05:30:07;;;;;;;27.42;18.02;;;15.30;99.90;;;;;;5034739;28;20056;-68
2023/09/09 05:32:34;;;;;;;28.00;19.10;;;15.30;99.90;;;;;;5028257;28;20156;-67
2023/09/09 05:34:59;;;;;;;25.30;17.90;;;15.30;99.90;;;;;;5039299;28;20033;-68
2023/09/09 05:37:30;;;;;;;19.17;14.23;;;15.30;99.90;;;;;;5040249;28;20041;-67
2023/09/09 05:39:56;;;;;;;20.02;13.95;;;15.30;99.90;;;;;;5037750;28;20037;-68
2023/09/09 05:42:22;;;;;;;16.33;12.63;;;15.30;99.90;;;;;;5042079;28;20527;-67
2023/09/09 05:44:48;;;;;;;16.50;11.98;;;15.40;99.90;;;;;;5040530;28;20051;-67
2023/09/09 05:47:14;;;;;;;15.43;12.15;;;15.40;99.90;;;;;;5024213;28;20037;-67
2023/09/09 05:49:39;;;;;;;18.33;13.45;;;15.40;99.90;;;;;;5042516;28;20041;-67
2023/09/09 05:52:05;;;;;;;21.55;14.32;;;15.40;99.90;;;;;;5028838;28;20445;-67
2023/09/09 05:54:31;;;;;;;21.05;14.57;;;15.40;99.90;;;;;;5047074;28;20112;-67
2023/09/09 05:56:57;;;;;;;20.65;14.63;;;15.50;99.90;;;;;;5041526;28;20040;-67
2023/09/09 05:59:22;;;;;;;20.65;14.52;;;15.50;99.90;;;;;;5045829;28;20499;-67
2023/09/09 06:01:48;;;;;;;22.17;15.10;;;15.50;99.90;;;;;;5042913;28;20056;-67
2023/09/09 06:04:15;;;;;;;19.00;13.35;;;15.60;99.90;;;;;;5041291;28;20053;-67
2023/09/09 06:06:44;;;;;;;19.90;14.00;;;15.70;99.90;;;;;;5041954;28;20048;-67
2023/09/09 06:09:11;;;;;;;17.88;13.75;;;15.70;99.90;;;;;;5042378;28;20047;-67
2023/09/09 06:11:36;;;;;;;21.90;15.35;;;15.80;99.90;;;;;;5047170;28;20032;-67
2023/09/09 06:14:02;;;;;;;19.90;14.80;;;15.90;99.90;;;;;;5039432;28;20392;-67
2023/09/09 06:16:28;;;;;;;20.08;14.20;;;16.00;99.90;;;;;;5042951;28;20049;-67
2023/09/09 06:18:53;;;;;;;19.15;14.30;;;16.20;99.90;;;;;;5041652;28;20033;-67
2023/09/09 06:21:20;;;;;;;21.50;14.45;;;16.30;99.90;;;;;;5037387;28;20076;-67
2023/09/09 06:23:46;;;;;;;20.67;14.88;;;16.40;99.90;;;;;;5049125;28;20052;-68
2023/09/09 06:26:12;;;;;;;24.25;15.98;;;16.50;99.90;;;;;;5041089;28;20036;-67
2023/09/09 06:28:37;;;;;;;23.30;16.30;;;16.70;99.90;;;;;;5044944;28;20891;-68
2023/09/09 06:31:03;;;;;;;21.92;15.80;;;16.80;99.90;;;;;;5042191;28;20071;-67
2023/09/09 06:33:29;;;;;;;21.63;15.57;;;17.10;99.90;;;;;;5046809;28;20112;-67
2023/09/09 06:35:55;;;;;;;24.05;14.80;;;17.30;99.90;;;;;;5025543;28;20134;-67
2023/09/09 06:38:21;;;;;;;20.83;16.23;;;17.50;99.90;;;;;;5039901;28;20045;-71
2023/09/09 06:40:47;;;;;;;21.73;15.45;;;17.80;99.90;;;;;;5043495;28;20358;-67
2023/09/09 06:43:15;;;;;;;23.25;16.83;;;18.00;99.90;;;;;;5046367;28;20072;-67
2023/09/09 06:45:41;;;;;;;19.38;14.70;;;18.30;99.90;;;;;;5042133;28;20916;-67
2023/09/09 06:48:06;;;;;;;19.27;14.50;;;18.60;99.90;;;;;;5041477;28;20037;-67
2023/09/09 06:50:32;;;;;;;20.92;16.10;;;18.90;99.90;;;;;;5040334;28;20091;-67
2023/09/09 06:52:58;;;;;;;21.25;16.10;;;19.20;99.90;;;;;;5042136;28;20033;-68
2023/09/09 06:55:23;;;;;;;23.15;16.25;;;19.40;99.90;;;;;;5042643;28;20041;-68
2023/09/09 06:57:49;;;;;;;20.35;15.73;;;19.70;99.90;;;;;;5044493;28;20471;-68
2023/09/09 07:00:16;;;;;;;19.25;15.10;;;19.90;99.90;;;;;;5039629;28;20049;-68
2023/09/09 07:02:41;;;;;;;17.67;14.88;;;20.20;99.90;;;;;;5042356;28;20140;-68
2023/09/09 07:05:07;;;;;;;18.98;15.15;;;20.60;99.90;;;;;;5047503;28;20044;-68
2023/09/09 07:07:33;;;;;;;22.40;17.00;;;20.80;99.90;;;;;;5040382;28;20060;-68
2023/09/09 07:09:58;;;;;;;21.35;15.55;;;21.20;99.90;;;;;;5033811;28;20779;-69
2023/09/09 07:12:24;;;;;;;19.05;14.85;;;21.50;99.90;;;;;;5041282;28;20033;-68
2023/09/09 07:14:50;;;;;;;20.58;16.55;;;21.70;99.90;;;;;;5040584;28;20053;-68
2023/09/09 07:17:15;;;;;;;22.42;17.55;;;22.00;99.90;;;;;;5044586;28;20056;-69
2023/09/09 07:19:41;;;;;;;23.20;17.73;;;22.30;99.90;;;;;;5042266;28;20069;-68
2023/09/09 07:22:07;;;;;;;21.20;16.73;;;22.60;99.90;;;;;;5039993;28;20041;-69
2023/09/09 07:24:32;;;;;;;24.27;17.92;;;22.80;99.90;;;;;;5032974;28;20045;-68
2023/09/09 07:27:01;;;;;;;22.10;16.23;;;23.10;99.90;;;;;;5040932;28;20061;-69
2023/09/09 07:29:26;;;;;;;23.50;16.27;;;23.30;99.40;;;;;;5040381;28;20044;-69
2023/09/09 07:31:52;;;;;;;23.10;18.40;;;23.50;98.30;;;;;;5041092;28;20045;-69
2023/09/09 07:34:19;;;;;;;24.30;17.38;;;23.80;96.30;;;;;;5043004;28;20168;-69
2023/09/09 07:36:45;;;;;;;23.77;17.95;;;24.00;95.00;;;;;;5044180;28;20037;-69
2023/09/09 07:39:10;;;;;;;22.10;16.95;;;24.20;93.50;;;;;;5038608;28;20047;-69
2023/09/09 07:41:36;;;;;;;21.83;17.50;;;24.20;92.80;;;;;;5043772;28;20029;-69
2023/09/09 07:44:02;;;;;;;20.13;16.15;;;24.40;92.30;;;;;;5050842;28;20048;-69
2023/09/09 07:46:28;;;;;;;21.33;16.42;;;24.50;91.10;;;;;;5051554;28;20448;-69
2023/09/09 07:48:54;;;;;;;18.33;15.82;;;24.70;91.10;;;;;;5043159;28;20036;-69
2023/09/09 07:51:20;;;;;;;19.98;16.70;;;24.90;90.40;;;;;;5045212;28;20044;-69
2023/09/09 07:53:46;;;;;;;22.83;16.15;;;24.80;89.90;;;;;;5048271;28;20052;-70
2023/09/09 07:56:12;;;;;;;23.13;17.35;;;24.90;87.90;;;;;;5021825;28;20049;-68
2023/09/09 07:58:38;;;;;;;19.67;15.80;;;24.90;86.90;;;;;;5031574;28;20059;-69
2023/09/09 08:01:06;;;;;;;19.10;16.33;;;24.90;86.10;;;;;;5029525;28;20048;-69
2023/09/09 08:03:31;;;;;;;18.67;15.50;;;24.90;85.60;;;;;;5049515;28;20462;-69
2023/09/09 08:06:02;;;;;;;23.15;15.63;;;25.00;84.50;;;;;;5048070;28;20081;-69
2023/09/09 08:08:31;;;;;;;17.23;14.90;;;24.90;83.80;;;;;;5047184;28;20064;-69
2023/09/09 08:10:57;;;;;;;18.52;15.00;;;24.80;83.40;;;;;;5047281;28;20064;-69
2023/09/09 08:13:23;;;;;;;18.55;15.57;;;24.80;84.10;;;;;;5047985;28;20064;-68
2023/09/09 08:15:49;;;;;;;20.20;13.68;;;24.70;84.20;;;;;;5030034;28;20144;-68
2023/09/09 08:18:14;;;;;;;19.55;14.95;;;24.70;84.20;;;;;;5050787;28;20102;-69
2023/09/09 08:20:41;;;;;;;20.27;16.15;;;24.90;83.50;;;;;;5039269;28;20045;-68
2023/09/09 08:23:08;;;;;;;18.17;13.90;;;24.90;83.00;;;;;;5048825;28;20056;-69
2023/09/09 08:25:33;;;;;;;18.30;14.13;;;25.20;82.50;;;;;;5034961;28;20394;-69
2023/09/09 08:28:01;;;;;;;22.13;16.08;;;25.70;81.00;;;;;;5045394;28;20041;-68
2023/09/09 08:30:27;;;;;;;19.35;14.43;;;26.40;78.80;;;;;;5044140;28;20171;-68
2023/09/09 08:32:53;;;;;;;14.57;11.80;;;27.00;78.10;;;;;;5047897;28;20040;-69
2023/09/09 08:35:18;;;;;;;15.20;11.73;;;27.50;75.90;;;;;;5036331;28;20029;-69
2023/09/09 08:37:44;;;;;;;17.45;11.50;;;28.00;75.10;;;;;;5062765;28;20116;-69
2023/09/09 08:40:10;;;;;;;14.00;11.02;;;28.20;74.30;;;;;;5071237;28;20427;-69
2023/09/09 08:42:47;;;;;;;13.82;10.82;;;28.70;73.70;;;;;;5054174;28;20036;-70
2023/09/09 08:45:19;;;;;;;15.50;12.90;;;29.00;71.40;;;;;;5028732;28;20048;-69
2023/09/09 08:47:45;;;;;;;14.52;12.85;;;29.40;70.50;;;;;;5044091;28;20041;-68
2023/09/09 08:50:13;;;;;;;16.15;12.65;;;29.60;68.80;;;;;;5044272;28;20033;-68
2023/09/09 08:52:39;;;;;;;16.05;11.95;;;29.30;67.60;;;;;;5050120;28;20060;-68
2023/09/09 08:55:06;;;;;;;18.13;12.18;;;29.10;68.10;;;;;;5049174;28;20371;-68
2023/09/09 08:57:32;;;;;;;12.27;10.90;;;28.80;68.40;;;;;;5047720;28;20453;-68
2023/09/09 09:00:00;;;;;;;13.77;12.07;;;28.40;69.30;;;;;;5048910;28;20033;-68
2023/09/09 09:02:26;;;;;;;16.15;12.43;;;28.00;70.30;;;;;;5046962;28;20067;-67
2023/09/09 09:04:52;;;;;;;13.30;11.90;;;27.70;70.60;;;;;;5049665;28;20044;-67
2023/09/09 09:07:19;;;;;;;12.50;10.00;;;27.40;71.30;;;;;;5047786;28;20483;-68
2023/09/09 09:09:44;;;;;;;15.90;12.68;;;27.40;71.40;;;;;;5046436;28;20497;-67
2023/09/09 09:12:13;;;;;;;13.18;10.10;;;27.30;71.30;;;;;;5051217;28;20047;-67
2023/09/09 09:14:46;;;;;;;18.50;11.45;;;27.40;71.20;;;;;;5046132;28;20116;-67
2023/09/09 09:17:14;;;;;;;14.82;11.52;;;27.20;70.40;;;;;;5048871;28;20095;-67
2023/09/09 09:19:39;;;;;;;14.50;11.13;;;27.10;71.30;;;;;;5047532;28;20080;-67
2023/09/09 09:22:05;;;;;;;16.25;11.43;;;27.20;71.10;;;;;;5047170;28;20037;-68
2023/09/09 09:24:44;;;;;;;13.13;10.30;;;27.10;71.10;;;;;;5050241;28;20124;-67
2023/09/09 09:27:15;;;;;;;15.57;11.90;;;27.10;71.60;;;;;;5045784;28;20041;-67
2023/09/09 09:29:41;;;;;;;13.00;10.90;;;26.80;71.60;;;;;;5066211;28;20051;-67
2023/09/09 09:32:09;;;;;;;13.00;9.70;;;26.90;72.00;;;;;;5057219;28;20106;-68
2023/09/09 09:34:35;;;;;;;14.48;10.35;;;26.90;72.10;;;;;;5057799;28;20036;-67
2023/09/09 09:37:16;;;;;;;14.00;9.27;;;27.00;72.10;;;;;;5066619;28;20501;-66
2023/09/09 09:39:44;;;;;;;12.52;10.18;;;27.00;72.60;;;;;;5026942;28;20049;-67
2023/09/09 09:42:13;;;;;;;18.42;10.60;;;27.20;72.30;;;;;;5046128;28;20516;-67
2023/09/09 09:44:38;;;;;;;12.88;10.00;;;27.20;71.20;;;;;;5033396;28;20139;-66
2023/09/09 09:47:08;;;;;;;11.93;9.23;;;27.20;71.00;;;;;;5039980;28;20049;-67
2023/09/09 09:49:41;;;;;;;13.77;9.43;;;27.10;71.20;;;;;;5047904;28;20144;-66
2023/09/09 09:52:08;;;;;;;11.43;9.18;;;27.20;71.60;;;;;;5029166;28;20592;-66
2023/09/09 09:54:36;;;;;;;11.13;9.38;;;27.30;71.70;;;;;;5034113;28;20138;-66
2023/09/09 09:57:03;;;;;;;12.27;9.63;;;27.50;71.70;;;;;;5029898;28;20056;-67
2023/09/09 09:59:34;;;;;;;11.85;9.50;;;27.60;72.10;;;;;;5056030;28;20044;-69
2023/09/09 10:02:01;;;;;;;11.85;8.65;;;27.70;71.60;;;;;;5068326;28;20052;-69
2023/09/09 10:04:28;;;;;;;11.02;9.80;;;27.70;71.50;;;;;;5034859;28;20065;-69
2023/09/09 10:06:57;;;;;;;11.98;9.10;;;27.50;71.20;;;;;;5028076;28;20052;-68
2023/09/09 10:09:38;;;;;;;12.35;9.52;;;27.60;71.30;;;;;;5039759;28;20044;-68
2023/09/09 10:12:18;;;;;;;9.38;7.90;;;27.70;70.50;;;;;;5067011;28;20533;-69
2023/09/09 10:14:44;;;;;;;11.80;8.60;;;27.80;71.20;;;;;;5030733;28;20118;-69
2023/09/09 10:17:12;;;;;;;12.57;8.25;;;27.90;71.20;;;;;;5027531;28;20284;-69
2023/09/09 10:19:39;;;;;;;16.00;11.13;;;28.00;71.40;;;;;;5055968;28;20083;-69
2023/09/09 10:22:05;;;;;;;13.25;10.13;;;27.90;71.20;;;;;;5065634;28;20043;-68
2023/09/09 10:24:33;;;;;;;11.85;9.32;;;28.00;71.60;;;;;;5050862;28;20041;-68
2023/09/09 10:27:03;;;;;;;12.52;9.63;;;28.10;71.40;;;;;;5023416;28;20041;-69
2023/09/09 10:29:30;;;;;;;14.55;9.98;;;28.20;71.20;;;;;;5024890;28;20186;-68
2023/09/09 10:32:01;;;;;;;12.07;8.43;;;28.10;70.40;;;;;;5065386;28;20116;-69
2023/09/09 10:34:29;;;;;;;12.15;8.80;;;28.30;70.70;;;;;;5041089;28;20074;-69
2023/09/09 10:36:59;;;;;;;12.15;9.35;;;28.40;70.30;;;;;;5051029;28;20033;-68
2023/09/09 10:39:25;;;;;;;14.85;10.77;;;28.10;70.60;;;;;;5045922;28;20371;-68
2023/09/09 10:41:53;;;;;;;14.38;10.15;;;28.10;70.50;;;;;;5041649;28;20085;-69
2023/09/09 10:44:18;;;;;;;16.00;9.85;;;28.20;70.70;;;;;;5041714;28;20056;-68
2023/09/09 10:46:44;;;;;;;11.68;9.98;;;28.30;70.80;;;;;;5046466;28;20037;-69
2023/09/09 10:49:16;;;;;;;13.50;9.60;;;28.30;70.80;;;;;;5040655;28;20117;-69
2023/09/09 10:51:49;;;;;;;15.45;11.13;;;28.40;70.90;;;;;;5047350;28;20036;-69
2023/09/09 10:54:21;;;;;;;16.58;13.15;;;28.40;70.80;;;;;;5042515;28;20041;-69
2023/09/09 10:56:54;;;;;;;16.08;9.80;;;28.40;70.80;;;;;;5045484;28;20045;-68
2023/09/09 10:59:23;;;;;;;13.50;10.93;;;28.50;71.10;;;;;;5041075;28;20114;-69
2023/09/09 11:02:07;;;;;;;14.30;11.00;;;28.50;71.00;;;;;;5046366;28;20064;-68
2023/09/09 11:04:37;;;;;;;12.82;10.63;;;28.60;70.80;;;;;;5031850;28;20049;-69
2023/09/09 11:07:13;;;;;;;14.52;10.95;;;28.50;70.70;;;;;;5044989;28;20359;-68
2023/09/09 11:09:48;;;;;;;12.45;10.57;;;28.50;70.30;;;;;;5038416;28;20063;-69
2023/09/09 11:12:15;;;;;;;16.85;10.55;;;28.60;70.20;;;;;;5044073;28;20044;-68
2023/09/09 11:14:44;;;;;;;10.60;9.40;;;28.60;70.20;;;;;;5042344;28;20040;-69
2023/09/09 11:17:10;;;;;;;16.45;11.18;;;28.70;70.00;;;;;;5054341;28;20318;-68
2023/09/09 11:19:37;;;;;;;14.77;10.38;;;28.50;69.80;;;;;;5042012;28;20051;-68
2023/09/09 11:22:06;;;;;;;14.98;10.70;;;28.60;69.30;;;;;;5045192;28;20049;-68
2023/09/09 11:24:33;;;;;;;13.23;10.40;;;28.70;68.70;;;;;;5061622;28;20571;-69
2023/09/09 11:26:59;;;;;;;11.88;9.23;;;28.70;68.70;;;;;;5065611;28;20060;-68
2023/09/09 11:29:25;;;;;;;12.07;9.85;;;28.60;68.60;;;;;;5034530;28;20043;-68
2023/09/09 11:31:50;;;;;;;19.02;12.38;;;28.60;68.20;;;;;;5057810;28;20040;-69
2023/09/09 11:34:16;;;;;;;13.85;9.93;;;28.70;66.90;;;;;;5051590;28;20102;-68
2023/09/09 11:36:43;;;;;;;17.27;11.30;;;28.70;67.30;;;;;;5040833;28;20044;-68
2023/09/09 11:39:09;;;;;;;13.48;10.15;;;28.80;67.20;;;;;;5037869;28;20528;-68
2023/09/09 11:41:35;;;;;;;13.75;9.57;;;28.80;67.40;;;;;;5046306;28;20049;-68
2023/09/09 11:44:08;;;;;;;12.30;9.55;;;28.90;67.30;;;;;;5034021;28;20068;-68
2023/09/09 11:46:41;;;;;;;16.20;12.00;;;28.70;67.10;;;;;;5045542;28;20052;-68
2023/09/09 11:49:08;;;;;;;11.13;9.77;;;28.80;65.70;;;;;;5029742;28;20033;-68
2023/09/09 11:51:34;;;;;;;16.08;8.98;;;28.70;66.60;;;;;;5048104;28;20044;-68
2023/09/09 11:54:00;;;;;;;12.38;9.23;;;28.80;66.70;;;;;;5034031;28;20048;-68
2023/09/09 11:56:27;;;;;;;16.63;11.57;;;28.90;66.90;;;;;;5047211;28;20512;-68
2023/09/09 11:58:53;;;;;;;15.57;10.65;;;28.80;66.70;;;;;;5029270;28;20454;-68
2023/09/09 12:01:20;;;;;;;12.25;9.65;;;28.70;66.80;;;;;;5046014;28;20045;-69
2023/09/09 12:03:48;;;;;;;11.90;9.45;;;28.70;67.40;;;;;;5048429;28;20071;-69
2023/09/09 12:06:16;;;;;;;11.18;9.80;;;28.90;67.10;;;;;;5048091;28;20041;-68
2023/09/09 12:08:42;;;;;;;10.68;8.82;;;28.90;67.10;;;;;;5030177;28;20033;-68
2023/09/09 12:11:10;;;;;;;15.90;9.10;;;29.00;67.40;;;;;;5029759;28;20040;-68
2023/09/09 12:13:37;;;;;;;11.18;8.50;;;29.00;67.00;;;;;;5045166;28;20045;-68
2023/09/09 12:16:05;;;;;;;13.77;8.88;;;29.10;66.30;;;;;;5043477;28;20040;-68
2023/09/09 12:18:30;;;;;;;13.75;8.75;;;29.00;65.80;;;;;;5048516;28;20485;-68
2023/09/09 12:21:11;;;;;;;10.80;8.32;;;29.00;65.60;;;;;;5049997;28;20091;-68
2023/09/09 12:23:39;;;;;;;12.15;8.75;;;29.10;64.90;;;;;;5046858;28;20436;-68
2023/09/09 12:26:18;;;;;;;12.40;8.18;;;29.20;65.60;;;;;;5051477;28;20094;-68